KE3HG-2 Weather Reports


Display with metric or nautical units.
time (UTC)temp
F
wind
direction
speed
MPH
gust
MPH
rain 1hr
in
rain 24hr
in
rain mn
in
humidity
%
barometer
mb
20200606210642 85 286 2.0 5.0 0.00 0.07 0.00 32 1006.3
20200606205642 84 309 4.0 8.0 0.00 0.08 0.00 33 1006.4
20200606203939 85 223 2.0 4.0 0.00 0.10 0.00 32 1006.4
20200606202939 86 275 1.0 13.0 0.00 0.10 0.00 37 1006.4
20200606201939 86 321 3.0 7.0 0.00 0.12 0.00 32 1006.5
20200606200234 85 228 3.0 9.0 0.00 0.28 0.00 33 1006.5
20200606195236 86 298 4.0 9.0 0.00 0.39 0.00 33 1006.7
20200606194234 86 287 1.0 10.0 0.00 0.40 0.00 44 1006.7
20200606192531 86 228 2.0 4.0 0.00 0.40 0.00 40 1006.9
20200606191529 84 238 1.0 3.0 0.00 0.40 0.00 43 1006.9
20200606190529 83 326 2.0 9.0 0.00 0.40 0.00 44 1006.8
20200606184823 84 214 3.0 5.0 0.00 0.40 0.00 44 1006.8
20200606183823 86 224 1.0 3.0 0.00 0.40 0.00 44 1006.8
20200606182822 86 231 1.0 3.0 0.00 0.40 0.00 43 1006.8
20200606181105 85 279 1.0 8.0 0.00 0.40 0.00 48 1007.0
20200606180106 84 315 4.0 10.0 0.00 0.40 0.00 45 1007.0
20200606175106 85 218 1.0 3.0 0.00 0.40 0.00 48 1007.3
20200606161859 82 320 1.0 8.0 0.00 0.40 0.00 57 1008.4
20200606160859 82 346 3.0 6.0 0.00 0.40 0.00 57 1008.7
20200606155859 81 0 0.0 3.0 0.00 0.40 0.00 58 1008.8
20200606154114 81 297 1.0 2.0 0.00 0.40 0.00 64 1009.1
20200606153114 80 213 2.0 3.0 0.00 0.40 0.00 63 1009.2
20200606152113 80 202 1.0 3.0 0.00 0.40 0.00 63 1009.2
20200606150331 78 327 2.0 8.0 0.00 0.40 0.00 63 1009.3
20200606145331 78 234 1.0 4.0 0.00 0.40 0.00 65 1009.3
20200606144331 78 309 1.0 8.0 0.00 0.40 0.00 66 1009.4
20200606142532 76 313 1.0 4.0 0.00 0.40 0.00 68 1009.4
20200606141524 75 0 0.0 9.0 0.00 0.40 0.00 69 1009.6
20200606140524 76 319 1.0 3.0 0.00 0.40 0.00 69 1009.6
20200606134727 76 296 1.0 2.0 0.00 0.40 0.00 70 1009.6
20200606133727 75 0 0.0 4.0 0.00 0.40 0.00 70 1009.6
20200606132727 74 0 0.0 1.0 0.00 0.40 0.00 73 1009.6
20200606130916 73 0 0.0 3.0 0.00 0.40 0.00 75 1009.7
20200606125916 73 0 0.0 1.0 0.00 0.40 0.00 75 1009.7
20200606124916 73 0 0.0 1.0 0.00 0.40 0.00 75 1009.7
20200606123057 72 0 0.0 1.0 0.00 0.40 0.00 76 1009.7
20200606122057 72 0 0.0 3.0 0.00 0.40 0.00 76 1009.6
20200606121057 71 0 0.0 1.0 0.00 0.40 0.00 76 1009.7
20200606115242 71 0 0.0 2.0 0.00 0.40 0.00 76 1009.5
20200606114242 70 0 0.0 3.0 0.00 0.40 0.00 76 1009.5
20200606113244 70 0 0.0 0.0 0.00 0.40 0.00 76 1009.4
20200606111609 70 0 0.0 1.0 0.00 0.40 0.00 76 1009.3
20200606110610 70 0 0.0 2.0 0.00 0.40 0.00 76 1009.3
20200606105610 70 0 0.0 1.0 0.00 0.40 0.00 76 1009.2
20200606104610 70 0 0.0 2.0 0.00 0.40 0.00 76 1009.1
20200606102757 69 0 0.0 3.0 0.00 0.40 0.00 76 1009.1
20200606101757 69 0 0.0 3.0 0.00 0.40 0.00 76 1009.1
20200606100757 69 333 2.0 4.0 0.00 0.40 0.00 76 1009.1
20200606094942 69 0 0.0 0.0 0.00 0.40 0.00 76 1009.0
20200606093942 69 0 0.0 0.0 0.00 0.40 0.00 76 1009.0
20200606092942 69 0 0.0 0.0 0.00 0.40 0.00 76 1008.9
20200606091153 69 0 0.0 0.0 0.00 0.40 0.00 76 1008.9
20200606090153 69 0 0.0 0.0 0.00 0.40 0.00 76 1009.0
20200606085153 69 0 0.0 0.0 0.00 0.40 0.00 76 1008.9
20200606083342 68 0 0.0 0.0 0.00 0.40 0.00 76 1009.1
20200606082342 68 0 0.0 0.0 0.00 0.40 0.00 76 1009.0
20200606081342 68 0 0.0 0.0 0.00 0.40 0.00 76 1009.0
20200606075531 68 0 0.0 0.0 0.00 0.41 0.00 76 1009.0
20200606074531 68 0 0.0 0.0 0.00 0.42 0.00 76 1009.0
20200606073531 68 0 0.0 0.0 0.00 0.42 0.00 76 1009.0
20200606071724 68 0 0.0 0.0 0.00 0.44 0.00 76 1009.1
20200606070724 68 0 0.0 0.0 0.00 0.44 0.00 76 1009.3
20200606065725 68 0 0.0 0.0 0.00 0.44 0.00 76 1009.4
20200606063915 69 0 0.0 0.0 0.00 0.44 0.00 76 1009.6
20200606062915 69 0 0.0 0.0 0.00 0.44 0.00 76 1009.6
20200606061916 69 0 0.0 0.0 0.00 0.44 0.00 76 1009.5
20200606060113 69 0 0.0 0.0 0.00 0.44 0.00 76 1009.8
20200606055113 69 0 0.0 0.0 0.00 0.44 0.00 76 1009.8
20200606054113 70 0 0.0 0.0 0.00 0.44 0.00 76 1009.7
20200606052310 70 0 0.0 0.0 0.00 0.44 0.00 76 1009.7
20200606051310 70 0 0.0 0.0 0.00 0.44 0.00 76 1009.7
20200606050309 70 0 0.0 0.0 0.00 0.44 0.00 76 1009.8
20200606044509 70 0 0.0 0.0 0.00 0.44 0.00 76 1010.0
20200606043508 70 0 0.0 0.0 0.00 0.44 0.00 76 1010.1
20200606042508 70 0 0.0 0.0 0.01 0.44 0.00 76 1010.2
20200606040707 71 0 0.0 0.0 0.01 0.44 0.00 76 1010.0
20200606035707 71 0 0.0 0.0 0.02 0.44 0.45 76 1010.2
20200606034707 71 0 0.0 0.0 0.02 0.44 0.45 76 1010.5
20200606032905 70 0 0.0 0.0 0.01 0.49 0.44 76 1010.6
20200606031904 71 0 0.0 0.0 0.01 0.61 0.44 76 1010.6
20200606030904 71 0 0.0 0.0 0.01 0.79 0.44 76 1010.6
20200606025101 71 0 0.0 0.0 0.01 1.07 0.43 76 1010.8
20200606024101 71 0 0.0 0.0 0.01 1.27 0.43 76 1010.7
20200606023102 71 0 0.0 0.0 0.01 1.30 0.43 76 1010.8
20200606021323 71 0 0.0 0.0 0.01 1.39 0.43 76 1010.9
20200606020323 71 0 0.0 0.0 0.01 1.41 0.43 76 1011.0
20200606015323 71 0 0.0 0.0 0.00 1.40 0.42 76 1011.0
20200606013526 71 0 0.0 0.0 0.01 1.40 0.42 76 1010.9
20200606012526 71 0 0.0 0.0 0.01 1.40 0.42 76 1010.7
20200606011526 71 0 0.0 0.0 0.02 1.40 0.42 76 1010.5
20200606010256 71 0 0.0 1.0 0.02 1.40 0.42 76 1010.3
20200606005256 71 0 0.0 0.0 0.03 1.40 0.42 76 1010.4
20200606004255 71 0 0.0 0.0 0.03 1.40 0.42 75 1010.5
20200606003255 71 0 0.0 0.0 0.02 1.39 0.41 75 1010.6
20200606002255 71 0 0.0 0.0 0.03 1.39 0.41 75 1010.6
20200606000456 71 0 0.0 0.0 0.02 1.38 0.40 75 1010.6
20200605235456 71 0 0.0 0.0 0.01 1.37 0.39 75 1010.6
20200605234456 71 0 0.0 0.0 0.01 1.37 0.39 75 1010.6
20200605232703 72 0 0.0 0.0 0.01 1.37 0.39 75 1010.4
20200605231703 72 0 0.0 0.0 0.00 1.36 0.38 75 1010.2
20200605230703 72 0 0.0 0.0 0.00 1.36 0.38 74 1010.0
20200605224906 72 0 0.0 1.0 0.00 1.36 0.38 75 1010.1
20200605223906 72 0 0.0 0.0 0.00 1.36 0.38 75 1010.0
20200605222906 72 0 0.0 1.0 0.00 1.36 0.38 74 1010.0
20200605221109 72 0 0.0 2.0 0.00 1.36 0.38 74 1010.2
20200605220109 72 0 0.0 0.0 0.00 1.36 0.38 74 1010.3
20200605215110 72 0 0.0 1.0 0.00 1.36 0.38 74 1010.2
20200605213317 72 0 0.0 3.0 0.01 1.36 0.38 74 1010.3
20200605212317 72 0 0.0 0.0 0.03 1.36 0.38 75 1010.5